EGXC

RAF Coningsby Airport

Coningsby, United Kingdom
METAR EGXC 210350Z 31006KT 9000 HZ FEW140 OVC160 M01/M02 Q1013 BLU
Observed Flight Rules
Jan-21 @ 03:50 UTC (54 minutes ago) Visual Flight Rules
Wind Visibility Clouds Conditions
310° at 6 knots 8,996 meters
  • Few at 14,000' AGL
  • Overcast at 16,000' AGL
  • Haze
Temperatures Readings
Current -1°C / 30°F
Dewpoint -2°C / 28°F
Humidity 93%
Altimeter 29.91" Hg
Pressure 1013 hPa
Elevation 7
METAR EGXC 210350Z 31006KT 9000 HZ FEW140 OVC160 M01/M02 Q1013 BLU
Observed Flight Rules
Jan-21 @ 03:50 UTC
(54 minutes ago)
VFR
Wind Visibility
310° at 6 knots 8,996 meters
Clouds
  • Few at 14,000' AGL
  • Overcast at 16,000' AGL
Conditions
  • Haze
Temperature Dewpoint
-1°C / 30°F -2°C / 28°F
Humidity Altimeter Pressure
93% 29.91" Hg 1013 hPa